sensor_id;sensor_type;location;lat;lon;timestamp;P1;durP1;ratioP1;P2;durP2;ratioP2
46290;SDS011;32023;44.444;26.006;2022-12-18T00:00:22;35.45;;;18.60;;
46290;SDS011;32023;44.444;26.006;2022-12-18T00:03:13;36.95;;;20.27;;
46290;SDS011;32023;44.444;26.006;2022-12-18T00:05:48;41.45;;;21.05;;
46290;SDS011;32023;44.444;26.006;2022-12-18T00:11:18;39.97;;;20.13;;
46290;SDS011;32023;44.444;26.006;2022-12-18T00:13:49;42.13;;;21.80;;
46290;SDS011;32023;44.444;26.006;2022-12-18T00:16:20;38.72;;;20.27;;
46290;SDS011;32023;44.444;26.006;2022-12-18T00:19:03;43.92;;;20.17;;
46290;SDS011;32023;44.444;26.006;2022-12-18T00:21:34;37.97;;;20.52;;
46290;SDS011;32023;44.444;26.006;2022-12-18T00:24:21;36.92;;;20.88;;
46290;SDS011;32023;44.444;26.006;2022-12-18T00:26:59;42.20;;;19.85;;
46290;SDS011;32023;44.444;26.006;2022-12-18T00:29:39;41.72;;;20.52;;
46290;SDS011;32023;44.444;26.006;2022-12-18T00:34:44;42.63;;;20.90;;
46290;SDS011;32023;44.444;26.006;2022-12-18T00:37:43;40.95;;;20.15;;
46290;SDS011;32023;44.444;26.006;2022-12-18T00:40:50;41.78;;;21.52;;
46290;SDS011;32023;44.444;26.006;2022-12-18T00:43:28;35.47;;;18.80;;
46290;SDS011;32023;44.444;26.006;2022-12-18T00:46:18;33.55;;;20.10;;
46290;SDS011;32023;44.444;26.006;2022-12-18T00:49:19;39.15;;;19.95;;
46290;SDS011;32023;44.444;26.006;2022-12-18T00:54:52;37.97;;;19.80;;
46290;SDS011;32023;44.444;26.006;2022-12-18T00:57:40;37.35;;;19.75;;
46290;SDS011;32023;44.444;26.006;2022-12-18T01:00:16;35.97;;;19.63;;
46290;SDS011;32023;44.444;26.006;2022-12-18T01:06:19;35.25;;;19.55;;
46290;SDS011;32023;44.444;26.006;2022-12-18T01:08:56;37.85;;;20.52;;
46290;SDS011;32023;44.444;26.006;2022-12-18T01:11:31;36.45;;;19.13;;
46290;SDS011;32023;44.444;26.006;2022-12-18T01:14:05;39.15;;;19.60;;
46290;SDS011;32023;44.444;26.006;2022-12-18T01:16:32;40.13;;;20.40;;
46290;SDS011;32023;44.444;26.006;2022-12-18T01:19:04;33.55;;;18.55;;
46290;SDS011;32023;44.444;26.006;2022-12-18T01:21:31;37.75;;;20.83;;
46290;SDS011;32023;44.444;26.006;2022-12-18T01:23:57;36.00;;;18.65;;
46290;SDS011;32023;44.444;26.006;2022-12-18T01:26:26;37.00;;;19.33;;
46290;SDS011;32023;44.444;26.006;2022-12-18T01:28:57;32.03;;;17.95;;
46290;SDS011;32023;44.444;26.006;2022-12-18T01:31:27;37.13;;;19.98;;
46290;SDS011;32023;44.444;26.006;2022-12-18T01:33:57;43.90;;;21.20;;
46290;SDS011;32023;44.444;26.006;2022-12-18T01:36:30;40.67;;;20.92;;
46290;SDS011;32023;44.444;26.006;2022-12-18T01:39:02;37.13;;;20.05;;
46290;SDS011;32023;44.444;26.006;2022-12-18T01:41:31;41.58;;;21.45;;
46290;SDS011;32023;44.444;26.006;2022-12-18T01:47:23;41.28;;;20.63;;
46290;SDS011;32023;44.444;26.006;2022-12-18T01:52:50;38.00;;;19.65;;
46290;SDS011;32023;44.444;26.006;2022-12-18T01:55:27;42.22;;;21.05;;
46290;SDS011;32023;44.444;26.006;2022-12-18T01:57:57;41.25;;;20.73;;
46290;SDS011;32023;44.444;26.006;2022-12-18T02:00:26;37.15;;;20.33;;
46290;SDS011;32023;44.444;26.006;2022-12-18T02:02:53;34.58;;;19.65;;
46290;SDS011;32023;44.444;26.006;2022-12-18T02:08:13;38.70;;;21.42;;
46290;SDS011;32023;44.444;26.006;2022-12-18T02:11:10;37.33;;;20.17;;
46290;SDS011;32023;44.444;26.006;2022-12-18T02:16:38;39.85;;;20.75;;
46290;SDS011;32023;44.444;26.006;2022-12-18T02:27:58;40.88;;;21.60;;
46290;SDS011;32023;44.444;26.006;2022-12-18T02:30:32;40.72;;;22.65;;
46290;SDS011;32023;44.444;26.006;2022-12-18T02:33:04;43.60;;;22.98;;
46290;SDS011;32023;44.444;26.006;2022-12-18T02:35:33;41.55;;;22.02;;
46290;SDS011;32023;44.444;26.006;2022-12-18T02:38:01;42.80;;;22.50;;
46290;SDS011;32023;44.444;26.006;2022-12-18T02:40:40;45.03;;;22.70;;
46290;SDS011;32023;44.444;26.006;2022-12-18T02:43:08;42.53;;;23.48;;
46290;SDS011;32023;44.444;26.006;2022-12-18T02:45:47;42.38;;;22.92;;
46290;SDS011;32023;44.444;26.006;2022-12-18T02:48:31;45.65;;;23.23;;
46290;SDS011;32023;44.444;26.006;2022-12-18T02:51:04;44.00;;;23.67;;
46290;SDS011;32023;44.444;26.006;2022-12-18T02:56:58;45.30;;;24.35;;
46290;SDS011;32023;44.444;26.006;2022-12-18T03:00:26;45.30;;;23.50;;
46290;SDS011;32023;44.444;26.006;2022-12-18T03:02:59;46.35;;;25.90;;
46290;SDS011;32023;44.444;26.006;2022-12-18T03:06:07;48.88;;;23.50;;
46290;SDS011;32023;44.444;26.006;2022-12-18T03:08:36;50.63;;;25.63;;
46290;SDS011;32023;44.444;26.006;2022-12-18T03:11:05;50.20;;;24.05;;
46290;SDS011;32023;44.444;26.006;2022-12-18T03:13:35;55.00;;;26.15;;
46290;SDS011;32023;44.444;26.006;2022-12-18T03:21:08;53.65;;;25.77;;
46290;SDS011;32023;44.444;26.006;2022-12-18T03:23:40;49.60;;;26.63;;
46290;SDS011;32023;44.444;26.006;2022-12-18T03:26:10;51.08;;;26.63;;
46290;SDS011;32023;44.444;26.006;2022-12-18T03:28:44;54.10;;;26.90;;
46290;SDS011;32023;44.444;26.006;2022-12-18T03:31:14;53.88;;;27.80;;
46290;SDS011;32023;44.444;26.006;2022-12-18T03:33:47;60.00;;;27.73;;
46290;SDS011;32023;44.444;26.006;2022-12-18T03:36:20;52.20;;;26.00;;
46290;SDS011;32023;44.444;26.006;2022-12-18T03:38:47;56.42;;;28.73;;
46290;SDS011;32023;44.444;26.006;2022-12-18T03:49:47;58.28;;;28.52;;
46290;SDS011;32023;44.444;26.006;2022-12-18T03:52:36;64.35;;;30.23;;
46290;SDS011;32023;44.444;26.006;2022-12-18T03:55:07;63.70;;;29.38;;
46290;SDS011;32023;44.444;26.006;2022-12-18T03:57:36;62.08;;;29.27;;
46290;SDS011;32023;44.444;26.006;2022-12-18T04:00:08;67.75;;;30.15;;
46290;SDS011;32023;44.444;26.006;2022-12-18T04:02:40;68.47;;;29.88;;
46290;SDS011;32023;44.444;26.006;2022-12-18T04:05:17;67.47;;;30.70;;
46290;SDS011;32023;44.444;26.006;2022-12-18T04:07:46;70.45;;;29.80;;
46290;SDS011;32023;44.444;26.006;2022-12-18T04:10:17;61.15;;;30.33;;
46290;SDS011;32023;44.444;26.006;2022-12-18T04:12:49;63.03;;;30.00;;
46290;SDS011;32023;44.444;26.006;2022-12-18T04:15:16;64.63;;;30.27;;
46290;SDS011;32023;44.444;26.006;2022-12-18T04:17:49;70.28;;;31.45;;
46290;SDS011;32023;44.444;26.006;2022-12-18T04:20:15;66.70;;;31.03;;
46290;SDS011;32023;44.444;26.006;2022-12-18T04:22:42;71.43;;;30.77;;
46290;SDS011;32023;44.444;26.006;2022-12-18T04:25:09;74.28;;;31.50;;
46290;SDS011;32023;44.444;26.006;2022-12-18T04:27:35;76.88;;;31.17;;
46290;SDS011;32023;44.444;26.006;2022-12-18T04:30:13;68.65;;;31.48;;
46290;SDS011;32023;44.444;26.006;2022-12-18T04:32:40;76.00;;;31.45;;
46290;SDS011;32023;44.444;26.006;2022-12-18T04:35:07;69.22;;;30.45;;
46290;SDS011;32023;44.444;26.006;2022-12-18T04:37:37;66.03;;;30.08;;
46290;SDS011;32023;44.444;26.006;2022-12-18T04:40:06;63.45;;;30.77;;
46290;SDS011;32023;44.444;26.006;2022-12-18T04:42:33;66.20;;;30.80;;
46290;SDS011;32023;44.444;26.006;2022-12-18T04:45:10;61.00;;;30.13;;
46290;SDS011;32023;44.444;26.006;2022-12-18T04:47:46;62.67;;;28.50;;
46290;SDS011;32023;44.444;26.006;2022-12-18T04:50:16;67.47;;;29.10;;
46290;SDS011;32023;44.444;26.006;2022-12-18T04:52:42;68.25;;;30.33;;
46290;SDS011;32023;44.444;26.006;2022-12-18T04:55:11;66.03;;;31.55;;
46290;SDS011;32023;44.444;26.006;2022-12-18T04:57:37;70.28;;;29.88;;
46290;SDS011;32023;44.444;26.006;2022-12-18T05:00:04;66.32;;;30.63;;
46290;SDS011;32023;44.444;26.006;2022-12-18T05:02:31;67.53;;;31.90;;
46290;SDS011;32023;44.444;26.006;2022-12-18T05:05:00;64.80;;;28.77;;
46290;SDS011;32023;44.444;26.006;2022-12-18T05:07:31;65.28;;;28.58;;
46290;SDS011;32023;44.444;26.006;2022-12-18T05:09:58;63.22;;;28.48;;
46290;SDS011;32023;44.444;26.006;2022-12-18T05:12:30;60.10;;;28.00;;
46290;SDS011;32023;44.444;26.006;2022-12-18T05:14:57;53.15;;;28.05;;
46290;SDS011;32023;44.444;26.006;2022-12-18T05:17:26;63.47;;;27.80;;
46290;SDS011;32023;44.444;26.006;2022-12-18T05:19:56;65.00;;;31.00;;
46290;SDS011;32023;44.444;26.006;2022-12-18T05:22:28;58.42;;;29.48;;
46290;SDS011;32023;44.444;26.006;2022-12-18T05:25:02;65.50;;;27.90;;
46290;SDS011;32023;44.444;26.006;2022-12-18T05:27:40;61.90;;;30.60;;
46290;SDS011;32023;44.444;26.006;2022-12-18T05:30:15;61.63;;;28.98;;
46290;SDS011;32023;44.444;26.006;2022-12-18T05:32:42;61.95;;;30.73;;
46290;SDS011;32023;44.444;26.006;2022-12-18T05:35:16;63.08;;;29.92;;
46290;SDS011;32023;44.444;26.006;2022-12-18T05:37:42;58.47;;;29.60;;
46290;SDS011;32023;44.444;26.006;2022-12-18T05:40:11;60.45;;;28.35;;
46290;SDS011;32023;44.444;26.006;2022-12-18T05:42:41;64.90;;;29.88;;
46290;SDS011;32023;44.444;26.006;2022-12-18T05:45:08;63.40;;;30.02;;
46290;SDS011;32023;44.444;26.006;2022-12-18T05:47:35;64.88;;;28.67;;
46290;SDS011;32023;44.444;26.006;2022-12-18T05:50:03;65.95;;;31.08;;
46290;SDS011;32023;44.444;26.006;2022-12-18T05:52:34;71.72;;;32.05;;
46290;SDS011;32023;44.444;26.006;2022-12-18T05:55:06;70.63;;;31.75;;
46290;SDS011;32023;44.444;26.006;2022-12-18T05:57:41;73.63;;;32.58;;
46290;SDS011;32023;44.444;26.006;2022-12-18T06:00:16;67.55;;;31.00;;
46290;SDS011;32023;44.444;26.006;2022-12-18T06:03:11;74.32;;;30.67;;
46290;SDS011;32023;44.444;26.006;2022-12-18T06:05:45;73.72;;;32.03;;
46290;SDS011;32023;44.444;26.006;2022-12-18T06:08:14;72.07;;;31.80;;
46290;SDS011;32023;44.444;26.006;2022-12-18T06:10:53;75.15;;;33.00;;
46290;SDS011;32023;44.444;26.006;2022-12-18T06:13:28;70.05;;;31.77;;
46290;SDS011;32023;44.444;26.006;2022-12-18T06:15:54;69.70;;;32.85;;
46290;SDS011;32023;44.444;26.006;2022-12-18T06:18:32;77.15;;;32.17;;
46290;SDS011;32023;44.444;26.006;2022-12-18T06:21:06;81.90;;;33.63;;
46290;SDS011;32023;44.444;26.006;2022-12-18T06:26:42;89.43;;;35.00;;
46290;SDS011;32023;44.444;26.006;2022-12-18T06:29:09;88.57;;;36.22;;
46290;SDS011;32023;44.444;26.006;2022-12-18T06:31:35;88.38;;;34.53;;
46290;SDS011;32023;44.444;26.006;2022-12-18T06:34:05;79.22;;;34.03;;
46290;SDS011;32023;44.444;26.006;2022-12-18T06:36:49;75.38;;;33.33;;
46290;SDS011;32023;44.444;26.006;2022-12-18T06:42:18;87.47;;;35.45;;
46290;SDS011;32023;44.444;26.006;2022-12-18T06:44:53;85.53;;;36.53;;
46290;SDS011;32023;44.444;26.006;2022-12-18T06:47:54;81.63;;;35.05;;
46290;SDS011;32023;44.444;26.006;2022-12-18T06:50:41;83.18;;;35.97;;
46290;SDS011;32023;44.444;26.006;2022-12-18T06:53:16;82.28;;;34.78;;
46290;SDS011;32023;44.444;26.006;2022-12-18T06:55:43;89.03;;;38.05;;
46290;SDS011;32023;44.444;26.006;2022-12-18T06:58:11;86.97;;;38.72;;
46290;SDS011;32023;44.444;26.006;2022-12-18T07:00:38;89.05;;;38.25;;
46290;SDS011;32023;44.444;26.006;2022-12-18T07:03:07;85.18;;;35.78;;
46290;SDS011;32023;44.444;26.006;2022-12-18T07:05:45;86.32;;;36.83;;
46290;SDS011;32023;44.444;26.006;2022-12-18T07:08:26;85.65;;;35.10;;
46290;SDS011;32023;44.444;26.006;2022-12-18T07:11:12;86.35;;;36.67;;
46290;SDS011;32023;44.444;26.006;2022-12-18T07:13:44;94.28;;;37.10;;
46290;SDS011;32023;44.444;26.006;2022-12-18T07:16:15;88.85;;;37.08;;
46290;SDS011;32023;44.444;26.006;2022-12-18T07:18:48;86.60;;;36.65;;
46290;SDS011;32023;44.444;26.006;2022-12-18T07:21:20;93.93;;;39.65;;
46290;SDS011;32023;44.444;26.006;2022-12-18T07:23:48;91.75;;;37.13;;
46290;SDS011;32023;44.444;26.006;2022-12-18T07:26:16;79.38;;;33.85;;
46290;SDS011;32023;44.444;26.006;2022-12-18T07:28:44;94.97;;;37.78;;
46290;SDS011;32023;44.444;26.006;2022-12-18T07:31:12;86.63;;;34.47;;
46290;SDS011;32023;44.444;26.006;2022-12-18T07:33:40;90.90;;;37.50;;
46290;SDS011;32023;44.444;26.006;2022-12-18T07:36:07;97.95;;;36.70;;
46290;SDS011;32023;44.444;26.006;2022-12-18T07:38:42;91.13;;;37.47;;
46290;SDS011;32023;44.444;26.006;2022-12-18T07:41:17;90.55;;;37.40;;
46290;SDS011;32023;44.444;26.006;2022-12-18T07:43:46;85.82;;;37.67;;
46290;SDS011;32023;44.444;26.006;2022-12-18T07:46:17;91.80;;;38.20;;
46290;SDS011;32023;44.444;26.006;2022-12-18T07:48:46;88.88;;;38.83;;
46290;SDS011;32023;44.444;26.006;2022-12-18T07:51:15;99.00;;;39.35;;
46290;SDS011;32023;44.444;26.006;2022-12-18T07:53:42;92.25;;;37.47;;
46290;SDS011;32023;44.444;26.006;2022-12-18T07:56:10;97.47;;;41.30;;
46290;SDS011;32023;44.444;26.006;2022-12-18T07:58:41;94.07;;;38.92;;
46290;SDS011;32023;44.444;26.006;2022-12-18T08:01:15;101.28;;;41.40;;
46290;SDS011;32023;44.444;26.006;2022-12-18T08:03:50;95.22;;;42.85;;
46290;SDS011;32023;44.444;26.006;2022-12-18T08:06:22;100.05;;;42.95;;
46290;SDS011;32023;44.444;26.006;2022-12-18T08:08:51;111.18;;;45.08;;
46290;SDS011;32023;44.444;26.006;2022-12-18T08:11:25;102.40;;;43.47;;
46290;SDS011;32023;44.444;26.006;2022-12-18T08:13:57;114.70;;;44.53;;
46290;SDS011;32023;44.444;26.006;2022-12-18T08:16:27;76.63;;;34.60;;
46290;SDS011;32023;44.444;26.006;2022-12-18T08:19:04;82.47;;;34.95;;
46290;SDS011;32023;44.444;26.006;2022-12-18T08:21:35;86.82;;;38.45;;
46290;SDS011;32023;44.444;26.006;2022-12-18T08:24:02;83.45;;;37.50;;
46290;SDS011;32023;44.444;26.006;2022-12-18T08:28:59;81.00;;;35.53;;
46290;SDS011;32023;44.444;26.006;2022-12-18T08:31:29;75.57;;;33.25;;
46290;SDS011;32023;44.444;26.006;2022-12-18T08:33:58;81.40;;;33.58;;
46290;SDS011;32023;44.444;26.006;2022-12-18T08:36:30;81.07;;;34.92;;
46290;SDS011;32023;44.444;26.006;2022-12-18T08:39:02;74.00;;;33.97;;
46290;SDS011;32023;44.444;26.006;2022-12-18T08:41:28;74.60;;;34.50;;
46290;SDS011;32023;44.444;26.006;2022-12-18T08:43:58;69.10;;;33.53;;
46290;SDS011;32023;44.444;26.006;2022-12-18T08:46:45;69.30;;;32.10;;
46290;SDS011;32023;44.444;26.006;2022-12-18T08:49:26;63.92;;;31.73;;
46290;SDS011;32023;44.444;26.006;2022-12-18T08:52:04;63.70;;;31.65;;
46290;SDS011;32023;44.444;26.006;2022-12-18T08:54:56;60.50;;;30.40;;
46290;SDS011;32023;44.444;26.006;2022-12-18T08:57:39;63.22;;;31.73;;
46290;SDS011;32023;44.444;26.006;2022-12-18T09:00:25;62.50;;;31.95;;
46290;SDS011;32023;44.444;26.006;2022-12-18T09:03:13;65.68;;;34.47;;
46290;SDS011;32023;44.444;26.006;2022-12-18T09:06:02;56.75;;;29.70;;
46290;SDS011;32023;44.444;26.006;2022-12-18T09:08:33;60.78;;;30.98;;
46290;SDS011;32023;44.444;26.006;2022-12-18T09:29:00;39.05;;;20.30;;
46290;SDS011;32023;44.444;26.006;2022-12-18T09:31:38;43.38;;;22.35;;
46290;SDS011;32023;44.444;26.006;2022-12-18T09:34:54;40.50;;;21.20;;
46290;SDS011;32023;44.444;26.006;2022-12-18T09:37:56;43.25;;;23.30;;
46290;SDS011;32023;44.444;26.006;2022-12-18T09:40:35;32.35;;;14.98;;
46290;SDS011;32023;44.444;26.006;2022-12-18T09:43:06;30.80;;;17.15;;
46290;SDS011;32023;44.444;26.006;2022-12-18T09:45:49;31.10;;;17.10;;
46290;SDS011;32023;44.444;26.006;2022-12-18T09:48:41;45.92;;;16.95;;
46290;SDS011;32023;44.444;26.006;2022-12-18T09:51:15;32.72;;;18.55;;
46290;SDS011;32023;44.444;26.006;2022-12-18T09:53:57;27.90;;;16.45;;
46290;SDS011;32023;44.444;26.006;2022-12-18T09:56:34;25.17;;;13.95;;
46290;SDS011;32023;44.444;26.006;2022-12-18T09:59:04;25.42;;;13.43;;
46290;SDS011;32023;44.444;26.006;2022-12-18T10:02:15;25.40;;;15.25;;
46290;SDS011;32023;44.444;26.006;2022-12-18T10:10:23;26.83;;;14.63;;
46290;SDS011;32023;44.444;26.006;2022-12-18T10:21:19;27.10;;;16.50;;
46290;SDS011;32023;44.444;26.006;2022-12-18T10:26:55;28.02;;;15.40;;
46290;SDS011;32023;44.444;26.006;2022-12-18T10:29:40;27.83;;;12.63;;
46290;SDS011;32023;44.444;26.006;2022-12-18T10:32:21;33.08;;;17.77;;
46290;SDS011;32023;44.444;26.006;2022-12-18T10:34:50;31.80;;;18.70;;
46290;SDS011;32023;44.444;26.006;2022-12-18T10:37:58;35.10;;;20.00;;
46290;SDS011;32023;44.444;26.006;2022-12-18T10:40:25;33.65;;;18.58;;
46290;SDS011;32023;44.444;26.006;2022-12-18T10:43:11;32.50;;;14.38;;
46290;SDS011;32023;44.444;26.006;2022-12-18T10:45:39;35.35;;;18.23;;
46290;SDS011;32023;44.444;26.006;2022-12-18T10:48:22;40.50;;;21.98;;
46290;SDS011;32023;44.444;26.006;2022-12-18T10:50:56;36.47;;;18.02;;
46290;SDS011;32023;44.444;26.006;2022-12-18T10:53:27;28.48;;;17.42;;
46290;SDS011;32023;44.444;26.006;2022-12-18T10:55:56;35.80;;;19.02;;
46290;SDS011;32023;44.444;26.006;2022-12-18T11:01:27;36.10;;;19.83;;
46290;SDS011;32023;44.444;26.006;2022-12-18T11:06:20;39.42;;;19.92;;
46290;SDS011;32023;44.444;26.006;2022-12-18T11:11:30;32.58;;;18.25;;
46290;SDS011;32023;44.444;26.006;2022-12-18T11:16:42;31.23;;;17.27;;
46290;SDS011;32023;44.444;26.006;2022-12-18T11:22:01;36.30;;;17.38;;
46290;SDS011;32023;44.444;26.006;2022-12-18T11:24:57;34.63;;;18.67;;
46290;SDS011;32023;44.444;26.006;2022-12-18T11:27:26;38.28;;;19.52;;
46290;SDS011;32023;44.444;26.006;2022-12-18T11:30:06;39.05;;;18.42;;
46290;SDS011;32023;44.444;26.006;2022-12-18T11:33:06;32.35;;;16.85;;
46290;SDS011;32023;44.444;26.006;2022-12-18T11:35:55;35.22;;;19.38;;
46290;SDS011;32023;44.444;26.006;2022-12-18T11:38:38;33.10;;;18.95;;
46290;SDS011;32023;44.444;26.006;2022-12-18T11:47:48;37.28;;;20.20;;
46290;SDS011;32023;44.444;26.006;2022-12-18T11:51:05;41.47;;;20.90;;
46290;SDS011;32023;44.444;26.006;2022-12-18T11:53:51;35.67;;;17.20;;
46290;SDS011;32023;44.444;26.006;2022-12-18T11:59:42;38.35;;;18.75;;
46290;SDS011;32023;44.444;26.006;2022-12-18T12:02:20;30.48;;;17.42;;
46290;SDS011;32023;44.444;26.006;2022-12-18T12:05:45;31.45;;;18.17;;
46290;SDS011;32023;44.444;26.006;2022-12-18T12:08:22;31.17;;;17.17;;
46290;SDS011;32023;44.444;26.006;2022-12-18T12:11:28;36.40;;;18.35;;
46290;SDS011;32023;44.444;26.006;2022-12-18T12:14:29;35.22;;;18.25;;
46290;SDS011;32023;44.444;26.006;2022-12-18T12:17:12;31.98;;;16.25;;
46290;SDS011;32023;44.444;26.006;2022-12-18T12:39:16;37.58;;;20.25;;
46290;SDS011;32023;44.444;26.006;2022-12-18T12:41:49;42.55;;;22.00;;
46290;SDS011;32023;44.444;26.006;2022-12-18T12:44:40;42.10;;;20.35;;
46290;SDS011;32023;44.444;26.006;2022-12-18T12:47:14;39.80;;;21.05;;
46290;SDS011;32023;44.444;26.006;2022-12-18T12:50:14;35.10;;;19.45;;
46290;SDS011;32023;44.444;26.006;2022-12-18T12:52:52;42.30;;;20.65;;
46290;SDS011;32023;44.444;26.006;2022-12-18T12:55:21;38.53;;;20.15;;
46290;SDS011;32023;44.444;26.006;2022-12-18T12:58:03;40.08;;;20.15;;
46290;SDS011;32023;44.444;26.006;2022-12-18T13:00:59;39.65;;;22.00;;
46290;SDS011;32023;44.444;26.006;2022-12-18T13:03:55;37.05;;;19.83;;
46290;SDS011;32023;44.444;26.006;2022-12-18T13:09:06;39.95;;;19.90;;
46290;SDS011;32023;44.444;26.006;2022-12-18T13:11:39;35.75;;;19.50;;
46290;SDS011;32023;44.444;26.006;2022-12-18T13:14:33;33.92;;;18.35;;
46290;SDS011;32023;44.444;26.006;2022-12-18T13:19:50;40.38;;;20.75;;
46290;SDS011;32023;44.444;26.006;2022-12-18T13:28:15;38.50;;;19.25;;
46290;SDS011;32023;44.444;26.006;2022-12-18T13:38:23;39.97;;;22.88;;
46290;SDS011;32023;44.444;26.006;2022-12-18T13:41:02;39.53;;;20.92;;
46290;SDS011;32023;44.444;26.006;2022-12-18T13:43:45;43.53;;;22.00;;
46290;SDS011;32023;44.444;26.006;2022-12-18T13:48:57;42.60;;;23.33;;
46290;SDS011;32023;44.444;26.006;2022-12-18T13:51:33;48.10;;;23.50;;
46290;SDS011;32023;44.444;26.006;2022-12-18T13:54:01;42.75;;;22.73;;
46290;SDS011;32023;44.444;26.006;2022-12-18T13:56:32;44.97;;;24.23;;
46290;SDS011;32023;44.444;26.006;2022-12-18T13:59:05;43.22;;;23.55;;
46290;SDS011;32023;44.444;26.006;2022-12-18T14:01:52;44.85;;;23.30;;
46290;SDS011;32023;44.444;26.006;2022-12-18T14:04:30;41.28;;;22.85;;
46290;SDS011;32023;44.444;26.006;2022-12-18T14:09:35;36.78;;;21.20;;
46290;SDS011;32023;44.444;26.006;2022-12-18T14:12:04;54.50;;;23.75;;
46290;SDS011;32023;44.444;26.006;2022-12-18T14:14:50;43.92;;;23.73;;
46290;SDS011;32023;44.444;26.006;2022-12-18T14:17:18;48.22;;;23.33;;
46290;SDS011;32023;44.444;26.006;2022-12-18T14:19:45;51.55;;;23.88;;
46290;SDS011;32023;44.444;26.006;2022-12-18T14:22:15;47.97;;;23.05;;
46290;SDS011;32023;44.444;26.006;2022-12-18T14:24:46;47.00;;;24.35;;
46290;SDS011;32023;44.444;26.006;2022-12-18T14:27:26;52.85;;;23.73;;
46290;SDS011;32023;44.444;26.006;2022-12-18T14:29:53;49.55;;;24.75;;
46290;SDS011;32023;44.444;26.006;2022-12-18T14:32:20;49.92;;;25.70;;
46290;SDS011;32023;44.444;26.006;2022-12-18T14:34:55;47.13;;;23.98;;
46290;SDS011;32023;44.444;26.006;2022-12-18T14:37:22;47.30;;;24.83;;
46290;SDS011;32023;44.444;26.006;2022-12-18T14:40:01;46.90;;;24.33;;
46290;SDS011;32023;44.444;26.006;2022-12-18T14:53:41;52.00;;;25.25;;
46290;SDS011;32023;44.444;26.006;2022-12-18T14:56:19;53.70;;;24.92;;
46290;SDS011;32023;44.444;26.006;2022-12-18T15:01:57;54.15;;;26.40;;
46290;SDS011;32023;44.444;26.006;2022-12-18T15:04:28;53.67;;;24.63;;
46290;SDS011;32023;44.444;26.006;2022-12-18T15:10:08;43.42;;;20.55;;
46290;SDS011;32023;44.444;26.006;2022-12-18T15:12:40;48.25;;;25.00;;
46290;SDS011;32023;44.444;26.006;2022-12-18T15:18:18;53.28;;;24.60;;
46290;SDS011;32023;44.444;26.006;2022-12-18T15:23:21;48.28;;;23.85;;
46290;SDS011;32023;44.444;26.006;2022-12-18T15:29:15;47.90;;;22.65;;
46290;SDS011;32023;44.444;26.006;2022-12-18T15:35:27;50.35;;;23.88;;
46290;SDS011;32023;44.444;26.006;2022-12-18T15:38:00;46.42;;;23.88;;
46290;SDS011;32023;44.444;26.006;2022-12-18T15:43:54;46.90;;;22.85;;
46290;SDS011;32023;44.444;26.006;2022-12-18T15:46:30;48.08;;;23.55;;
46290;SDS011;32023;44.444;26.006;2022-12-18T15:48:56;44.13;;;23.23;;
46290;SDS011;32023;44.444;26.006;2022-12-18T15:51:28;45.17;;;21.52;;
46290;SDS011;32023;44.444;26.006;2022-12-18T15:54:03;60.30;;;28.55;;
46290;SDS011;32023;44.444;26.006;2022-12-18T15:56:45;46.35;;;24.33;;
46290;SDS011;32023;44.444;26.006;2022-12-18T15:59:33;42.10;;;21.52;;
46290;SDS011;32023;44.444;26.006;2022-12-18T16:02:02;46.13;;;23.95;;
46290;SDS011;32023;44.444;26.006;2022-12-18T16:04:41;46.22;;;24.13;;
46290;SDS011;32023;44.444;26.006;2022-12-18T16:07:13;48.15;;;23.33;;
46290;SDS011;32023;44.444;26.006;2022-12-18T16:09:43;53.92;;;25.73;;
46290;SDS011;32023;44.444;26.006;2022-12-18T16:12:20;46.05;;;23.92;;
46290;SDS011;32023;44.444;26.006;2022-12-18T16:14:50;42.75;;;24.48;;
46290;SDS011;32023;44.444;26.006;2022-12-18T16:17:16;46.25;;;23.88;;
46290;SDS011;32023;44.444;26.006;2022-12-18T16:19:43;44.85;;;24.02;;
46290;SDS011;32023;44.444;26.006;2022-12-18T16:22:18;43.65;;;22.98;;
46290;SDS011;32023;44.444;26.006;2022-12-18T16:24:50;40.78;;;22.48;;
46290;SDS011;32023;44.444;26.006;2022-12-18T16:27:26;42.20;;;21.10;;
46290;SDS011;32023;44.444;26.006;2022-12-18T16:29:53;43.30;;;22.48;;
46290;SDS011;32023;44.444;26.006;2022-12-18T16:32:22;44.63;;;24.63;;
46290;SDS011;32023;44.444;26.006;2022-12-18T16:34:49;46.58;;;21.98;;
46290;SDS011;32023;44.444;26.006;2022-12-18T16:37:27;51.42;;;23.00;;
46290;SDS011;32023;44.444;26.006;2022-12-18T16:39:53;46.00;;;23.63;;
46290;SDS011;32023;44.444;26.006;2022-12-18T16:42:20;49.08;;;24.65;;
46290;SDS011;32023;44.444;26.006;2022-12-18T16:44:52;50.10;;;23.38;;
46290;SDS011;32023;44.444;26.006;2022-12-18T16:47:33;51.70;;;24.95;;
46290;SDS011;32023;44.444;26.006;2022-12-18T16:50:00;46.22;;;23.85;;
46290;SDS011;32023;44.444;26.006;2022-12-18T16:52:26;42.85;;;22.42;;
46290;SDS011;32023;44.444;26.006;2022-12-18T16:54:54;41.38;;;22.73;;
46290;SDS011;32023;44.444;26.006;2022-12-18T16:57:28;46.22;;;22.92;;
46290;SDS011;32023;44.444;26.006;2022-12-18T16:59:54;42.75;;;22.75;;
46290;SDS011;32023;44.444;26.006;2022-12-18T17:02:24;42.40;;;22.15;;
46290;SDS011;32023;44.444;26.006;2022-12-18T17:04:54;41.00;;;21.33;;
46290;SDS011;32023;44.444;26.006;2022-12-18T17:07:25;41.78;;;21.13;;
46290;SDS011;32023;44.444;26.006;2022-12-18T17:09:55;43.35;;;22.45;;
46290;SDS011;32023;44.444;26.006;2022-12-18T17:12:21;39.42;;;21.02;;
46290;SDS011;32023;44.444;26.006;2022-12-18T17:14:53;40.17;;;22.70;;
46290;SDS011;32023;44.444;26.006;2022-12-18T17:17:19;42.13;;;22.30;;
46290;SDS011;32023;44.444;26.006;2022-12-18T17:19:46;44.15;;;22.15;;
46290;SDS011;32023;44.444;26.006;2022-12-18T17:22:12;41.00;;;20.85;;
46290;SDS011;32023;44.444;26.006;2022-12-18T17:24:42;39.58;;;21.73;;
46290;SDS011;32023;44.444;26.006;2022-12-18T17:27:11;39.80;;;21.85;;
46290;SDS011;32023;44.444;26.006;2022-12-18T17:32:26;41.45;;;21.83;;
46290;SDS011;32023;44.444;26.006;2022-12-18T17:34:53;42.35;;;22.20;;
46290;SDS011;32023;44.444;26.006;2022-12-18T17:37:38;42.55;;;22.65;;
46290;SDS011;32023;44.444;26.006;2022-12-18T17:40:21;41.72;;;22.80;;
46290;SDS011;32023;44.444;26.006;2022-12-18T17:42:51;42.92;;;21.73;;
46290;SDS011;32023;44.444;26.006;2022-12-18T17:45:17;44.95;;;22.17;;
46290;SDS011;32023;44.444;26.006;2022-12-18T17:47:44;41.50;;;21.85;;
46290;SDS011;32023;44.444;26.006;2022-12-18T17:50:10;39.20;;;20.77;;
46290;SDS011;32023;44.444;26.006;2022-12-18T17:52:40;40.08;;;21.50;;
46290;SDS011;32023;44.444;26.006;2022-12-18T17:55:06;44.17;;;23.52;;
46290;SDS011;32023;44.444;26.006;2022-12-18T17:57:33;41.42;;;21.75;;
46290;SDS011;32023;44.444;26.006;2022-12-18T18:00:00;42.88;;;22.40;;
46290;SDS011;32023;44.444;26.006;2022-12-18T18:02:30;44.55;;;21.92;;
46290;SDS011;32023;44.444;26.006;2022-12-18T18:04:56;45.17;;;21.63;;
46290;SDS011;32023;44.444;26.006;2022-12-18T18:07:23;44.05;;;22.40;;